sensor_id;sensor_type;location;lat;lon;timestamp;temperature;humidity
31307;DHT22;17935;51.120;13.132;2023-06-26T09:19:32;56.80;31.70
31307;DHT22;17935;51.120;13.132;2023-06-26T09:24:23;55.60;31.20
31307;DHT22;17935;51.120;13.132;2023-06-26T09:26:51;56.00;31.60
31307;DHT22;17935;51.120;13.132;2023-06-26T09:29:17;56.20;31.50
31307;DHT22;17935;51.120;13.132;2023-06-26T09:31:44;56.30;31.60
31307;DHT22;17935;51.120;13.132;2023-06-26T09:34:10;56.40;31.50
31307;DHT22;17935;51.120;13.132;2023-06-26T10:35:30;39.10;41.50
31307;DHT22;17935;51.120;13.132;2023-06-26T10:38:01;38.80;41.90
31307;DHT22;17935;51.120;13.132;2023-06-26T10:40:40;37.90;42.50
31307;DHT22;17935;51.120;13.132;2023-06-26T10:43:07;37.40;43.40
31307;DHT22;17935;51.120;13.132;2023-06-26T10:45:37;37.10;43.80
31307;DHT22;17935;51.120;13.132;2023-06-26T10:48:07;36.50;43.00
31307;DHT22;17935;51.120;13.132;2023-06-26T10:56:01;35.40;46.60
31307;DHT22;17935;51.120;13.132;2023-06-26T11:01:21;35.20;46.50
31307;DHT22;17935;51.120;13.132;2023-06-26T11:03:47;35.20;45.50
31307;DHT22;17935;51.120;13.132;2023-06-26T11:06:20;35.10;45.20
31307;DHT22;17935;51.120;13.132;2023-06-26T11:08:53;34.90;44.80
31307;DHT22;17935;51.120;13.132;2023-06-26T11:11:20;34.70;45.60
31307;DHT22;17935;51.120;13.132;2023-06-26T11:13:46;34.60;46.10
31307;DHT22;17935;51.120;13.132;2023-06-26T11:16:13;34.50;46.30
31307;DHT22;17935;51.120;13.132;2023-06-26T11:18:40;34.20;46.20
31307;DHT22;17935;51.120;13.132;2023-06-26T11:21:06;34.20;46.90
31307;DHT22;17935;51.120;13.132;2023-06-26T11:23:35;34.30;46.70
31307;DHT22;17935;51.120;13.132;2023-06-26T11:26:21;34.50;46.50
31307;DHT22;17935;51.120;13.132;2023-06-26T11:28:51;34.60;46.20
31307;DHT22;17935;51.120;13.132;2023-06-26T11:31:28;34.80;47.00
31307;DHT22;17935;51.120;13.132;2023-06-26T11:33:56;34.90;46.90
31307;DHT22;17935;51.120;13.132;2023-06-26T11:36:28;34.80;45.30
31307;DHT22;17935;51.120;13.132;2023-06-26T11:39:01;34.50;46.50
31307;DHT22;17935;51.120;13.132;2023-06-26T11:41:30;34.30;46.10
31307;DHT22;17935;51.120;13.132;2023-06-26T11:44:01;34.00;46.10
31307;DHT22;17935;51.120;13.132;2023-06-26T11:46:27;33.70;47.00
31307;DHT22;17935;51.120;13.132;2023-06-26T11:48:53;33.50;47.10
31307;DHT22;17935;51.120;13.132;2023-06-26T11:51:19;33.10;47.50
31307;DHT22;17935;51.120;13.132;2023-06-26T11:53:46;33.10;47.20
31307;DHT22;17935;51.120;13.132;2023-06-26T11:56:13;33.40;48.50
31307;DHT22;17935;51.120;13.132;2023-06-26T11:59:06;33.60;46.50
31307;DHT22;17935;51.120;13.132;2023-06-26T12:01:36;33.60;47.60
31307;DHT22;17935;51.120;13.132;2023-06-26T12:04:07;33.70;47.60
31307;DHT22;17935;51.120;13.132;2023-06-26T12:06:35;33.70;47.60
31307;DHT22;17935;51.120;13.132;2023-06-26T12:09:04;33.80;48.00
31307;DHT22;17935;51.120;13.132;2023-06-26T12:11:30;33.90;47.10
31307;DHT22;17935;51.120;13.132;2023-06-26T12:13:57;34.00;47.40
31307;DHT22;17935;51.120;13.132;2023-06-26T12:16:23;34.00;47.80
31307;DHT22;17935;51.120;13.132;2023-06-26T12:18:48;33.80;46.40
31307;DHT22;17935;51.120;13.132;2023-06-26T12:21:44;33.50;47.30
31307;DHT22;17935;51.120;13.132;2023-06-26T12:24:13;33.10;47.20
31307;DHT22;17935;51.120;13.132;2023-06-26T12:26:42;33.10;48.00
31307;DHT22;17935;51.120;13.132;2023-06-26T12:29:13;33.20;47.20
31307;DHT22;17935;51.120;13.132;2023-06-26T12:31:51;33.00;47.80
31307;DHT22;17935;51.120;13.132;2023-06-26T12:34:19;33.00;47.50
31307;DHT22;17935;51.120;13.132;2023-06-26T12:36:49;33.00;47.40
31307;DHT22;17935;51.120;13.132;2023-06-26T12:39:20;33.10;47.50
31307;DHT22;17935;51.120;13.132;2023-06-26T12:41:52;33.10;47.70
31307;DHT22;17935;51.120;13.132;2023-06-26T12:44:19;32.90;46.20
31307;DHT22;17935;51.120;13.132;2023-06-26T12:46:49;32.70;46.60
31307;DHT22;17935;51.120;13.132;2023-06-26T12:49:16;32.70;47.00
31307;DHT22;17935;51.120;13.132;2023-06-26T13:01:27;32.90;46.50
31307;DHT22;17935;51.120;13.132;2023-06-26T13:03:53;32.90;46.90
31307;DHT22;17935;51.120;13.132;2023-06-26T13:06:19;32.80;47.40
31307;DHT22;17935;51.120;13.132;2023-06-26T13:08:45;32.80;46.70
31307;DHT22;17935;51.120;13.132;2023-06-26T13:11:10;32.70;46.70
31307;DHT22;17935;51.120;13.132;2023-06-26T13:13:35;32.70;46.50
31307;DHT22;17935;51.120;13.132;2023-06-26T13:16:01;32.80;47.20
31307;DHT22;17935;51.120;13.132;2023-06-26T13:18:27;32.80;46.90
31307;DHT22;17935;51.120;13.132;2023-06-26T13:20:53;32.60;46.60
31307;DHT22;17935;51.120;13.132;2023-06-26T13:23:18;32.60;47.30
31307;DHT22;17935;51.120;13.132;2023-06-26T13:25:45;32.70;47.20
31307;DHT22;17935;51.120;13.132;2023-06-26T13:28:10;32.80;46.90
31307;DHT22;17935;51.120;13.132;2023-06-26T13:30:36;32.80;47.50
31307;DHT22;17935;51.120;13.132;2023-06-26T13:33:01;32.90;46.40
31307;DHT22;17935;51.120;13.132;2023-06-26T13:35:27;33.00;47.30
31307;DHT22;17935;51.120;13.132;2023-06-26T13:37:53;33.10;47.30
31307;DHT22;17935;51.120;13.132;2023-06-26T13:40:18;33.20;46.60
31307;DHT22;17935;51.120;13.132;2023-06-26T13:42:44;33.30;46.90
31307;DHT22;17935;51.120;13.132;2023-06-26T13:45:10;33.40;46.40
31307;DHT22;17935;51.120;13.132;2023-06-26T13:47:36;33.20;46.00
31307;DHT22;17935;51.120;13.132;2023-06-26T13:50:03;32.90;46.30
31307;DHT22;17935;51.120;13.132;2023-06-26T13:52:29;32.50;46.30
31307;DHT22;17935;51.120;13.132;2023-06-26T13:54:55;32.40;47.20
31307;DHT22;17935;51.120;13.132;2023-06-26T13:57:20;32.30;47.00
31307;DHT22;17935;51.120;13.132;2023-06-26T13:59:47;32.60;47.50
31307;DHT22;17935;51.120;13.132;2023-06-26T14:02:13;33.00;47.00
31307;DHT22;17935;51.120;13.132;2023-06-26T14:04:39;33.50;46.10
31307;DHT22;17935;51.120;13.132;2023-06-26T14:07:05;34.10;46.40
31307;DHT22;17935;51.120;13.132;2023-06-26T14:09:31;34.50;45.20
31307;DHT22;17935;51.120;13.132;2023-06-26T14:11:56;34.90;45.90
31307;DHT22;17935;51.120;13.132;2023-06-26T14:14:22;35.10;45.80
31307;DHT22;17935;51.120;13.132;2023-06-26T14:16:47;35.30;43.90
31307;DHT22;17935;51.120;13.132;2023-06-26T14:19:14;35.30;44.40
31307;DHT22;17935;51.120;13.132;2023-06-26T14:21:41;35.10;44.80
31307;DHT22;17935;51.120;13.132;2023-06-26T14:24:07;34.60;45.50
31307;DHT22;17935;51.120;13.132;2023-06-26T14:26:32;34.40;44.40
31307;DHT22;17935;51.120;13.132;2023-06-26T14:28:59;34.30;45.60
31307;DHT22;17935;51.120;13.132;2023-06-26T14:31:25;34.00;45.50
31307;DHT22;17935;51.120;13.132;2023-06-26T14:33:50;33.90;46.20
31307;DHT22;17935;51.120;13.132;2023-06-26T14:36:16;33.80;45.40
31307;DHT22;17935;51.120;13.132;2023-06-26T14:38:41;33.50;46.50
31307;DHT22;17935;51.120;13.132;2023-06-26T14:41:07;33.30;45.90
31307;DHT22;17935;51.120;13.132;2023-06-26T14:43:32;33.20;45.80
31307;DHT22;17935;51.120;13.132;2023-06-26T14:45:58;33.10;46.00
31307;DHT22;17935;51.120;13.132;2023-06-26T14:48:23;33.00;46.10
31307;DHT22;17935;51.120;13.132;2023-06-26T14:50:49;33.00;46.90
31307;DHT22;17935;51.120;13.132;2023-06-26T14:53:14;32.90;47.30
31307;DHT22;17935;51.120;13.132;2023-06-26T14:55:40;32.90;47.00
31307;DHT22;17935;51.120;13.132;2023-06-26T14:58:05;32.80;47.10
31307;DHT22;17935;51.120;13.132;2023-06-26T15:00:31;32.80;47.20
31307;DHT22;17935;51.120;13.132;2023-06-26T15:02:56;32.70;46.80
31307;DHT22;17935;51.120;13.132;2023-06-26T15:05:24;32.90;47.50
31307;DHT22;17935;51.120;13.132;2023-06-26T15:07:49;33.10;47.20
31307;DHT22;17935;51.120;13.132;2023-06-26T15:10:15;33.10;47.60
31307;DHT22;17935;51.120;13.132;2023-06-26T15:12:41;33.10;48.10
31307;DHT22;17935;51.120;13.132;2023-06-26T15:15:08;32.90;46.90
31307;DHT22;17935;51.120;13.132;2023-06-26T15:17:33;32.70;47.00
31307;DHT22;17935;51.120;13.132;2023-06-26T15:19:59;32.80;46.80
31307;DHT22;17935;51.120;13.132;2023-06-26T15:22:26;32.90;47.30
31307;DHT22;17935;51.120;13.132;2023-06-26T15:24:52;32.50;50.90
